Antigo, Wisconsin
Current Conditions -  °F | °C
As of 12:55 PM on Thursday 23 Oct 2014 (Local Time) from KAIG Reporting Station
Drizzle Drizzle  
Wind Chill: 35°   Ceiling: 500
Heat Index: 40°   Visibility: 2.5mi
Dew Point: 40°   Wind: 8mph
Humidity: 99%   Direction: 170°S
Pressure: 30.06"   Gusts: NA
Location:  45.14°N, 89.15°W
Report Text: KAIG 231755Z AUTO 17007KT 2 1/2SM DZ OVC005 05/05 A3006 RMK AO2 60003 T00470045 10047 20029
Loading
Personal Weather Stations






























Interactive Weather Map New forecast layout! Learn more

10-Day Weather Forecast

Advertisements
Track Severe Weather on mobile